Nord Steady — S6ME7 — position and weather

sailwx.info

Track history (hours):
 
Tides and Currents Weather Stations Pressure Air Temp Water Temp Dewpoint Dewpoint Depression Visibility Wind Speed Wind Dir Waves Ship Positions

Nord Steady

Last reported at 2017-Dec-16 16:31 UTC. Time now 2017-Dec-16 16:57 UTC.
Position N 37°46' W 122°21'.

Length 183 m; draft 9.1 m.

Type: Tanker. MMSI: 566739000.

Date/timePositionNaut miles runAvg speedWind from/ knotsBaromVisibWave heightAir tempDewpointWater temp
2017-Dec-16 16:31N 37°46' W 122°21'1 1.1
2017-Dec-16 16:01N 37°46' W 122°21'611.2
2017-Dec-16 15:31N 37°51' W 122°24'5 9.1
2017-Dec-16 15:00N 37°55' W 122°25'3 6.2
2017-Dec-16 14:30N 37°54' W 122°22'1 0.1
2017-Dec-15 23:53N 37°55' W 122°22'0 0.9
2017-Dec-15 23:30N 37°55' W 122°22'2 3.7
2017-Dec-15 23:00N 37°54' W 122°24'2 3.6
2017-Dec-15 22:31N 37°53' W 122°25'4 7.8
2017-Dec-15 22:00N 37°49' W 122°26'4 8.6
2017-Dec-15 21:30N 37°48' W 122°31'510.9
2017-Dec-15 21:01N 37°46' W 122°38'510.1
2017-Dec-15 20:31N 37°46' W 122°44'5 9.7
2017-Dec-15 20:00N 37°48' W 122°50'4 7.0
2017-Dec-15 19:30N 37°50' W 122°54'3 7.1
2017-Dec-15 19:00N 37°51' W 122°58'4 7.3
2017-Dec-15 18:30N 37°53' W 123°02'4 7.8
2017-Dec-15 18:00N 37°55' W 123°06'4 7.6
2017-Dec-15 17:30N 37°57' W 123°10'4 7.4
2017-Dec-15 16:59N 37°60' W 123°13'4 7.4
2017-Dec-15 16:30N 38°03' W 123°16'4 7.7
2017-Dec-15 16:00N 38°05' W 123°19'4 8.4
2017-Dec-15 15:30N 38°08' W 123°23'4 8.2
2017-Dec-15 15:00N 38°10' W 123°28'4 8.0
2017-Dec-15 14:30N 38°12' W 123°32'4 8.2
2017-Dec-15 14:00N 38°14' W 123°37'4 8.3
2017-Dec-15 13:30N 38°16' W 123°41'4 8.0
2017-Dec-15 13:00N 38°18' W 123°46'4 8.1
2017-Dec-15 12:30N 38°21' W 123°50'4 8.0
2017-Dec-15 12:00N 38°23' W 123°55'4 8.4
2017-Dec-15 11:30N 38°25' W 123°59'10 8.4
2017-Dec-15 10:19N 38°30' W 124°10'3 8.5
2017-Dec-15 10:00N 38°31' W 124°13'4 8.7
2017-Dec-15 09:30N 38°33' W 124°18'4 8.6
2017-Dec-15 09:00N 38°35' W 124°23'4 8.8
2017-Dec-15 08:30N 38°37' W 124°28'4 8.7
2017-Dec-15 08:00N 38°39' W 124°33'4 8.3
2017-Dec-15 07:30N 38°41' W 124°37'4 7.8
2017-Dec-15 06:57N 38°44' W 124°42'2 5.5
2017-Dec-15 06:30N 38°45' W 124°45'2 3.9
2017-Dec-15 06:00N 38°46' W 124°47'2 3.8
2017-Dec-15 05:30N 38°47' W 124°49'2 3.9
2017-Dec-15 05:00N 38°48' W 124°51'2 4.0
2017-Dec-15 04:30N 38°49' W 124°53'2 4.1
2017-Dec-15 04:00N 38°50' W 124°56'6 4.3
2017-Dec-15 02:30N 38°53' W 125°03'7 4.3
2017-Dec-15 00:56N 38°56' W 125°10'2 4.0
2017-Dec-15 00:30N 38°57' W 125°13'30 5.1
2017-Dec-14 18:30N 39°21' W 125°36'3 6.7
2017-Dec-14 18:00N 39°25' W 125°38'6 8.3
2017-Dec-14 17:20N 39°30' W 125°40'612.0
2017-Dec-14 16:48N 39°36' W 125°43'412.3
2017-Dec-14 16:30N 39°39' W 125°44'9711.4
2017-Dec-14 08:04N 41°15' W 125°58'112.0
2017-Dec-14 07:58N 41°16' W 125°58'14412.0
2017-Dec-13 19:56N 43°40' W 125°59'512.0
2017-Dec-13 19:30N 43°45' W 125°59'7513.3
2017-Dec-13 13:54N 45°00' W 125°59'713.0
2017-Dec-13 13:22N 45°07' W 125°59'513.1
2017-Dec-13 13:00N 45°12' W 125°59'1613.0
2017-Dec-13 11:45N 45°28' W 125°59'312.8
2017-Dec-13 11:30N 45°31' W 125°59'612.8
2017-Dec-13 11:00N 45°38' W 125°59'812.9
2017-Dec-13 10:23N 45°46' W 125°59'512.9
2017-Dec-13 10:00N 45°50' W 125°59'712.9
2017-Dec-13 09:30N 45°57' W 125°59'613.0
2017-Dec-13 09:00N 46°03' W 125°59'713.1
2017-Dec-13 08:30N 46°10' W 125°59'1012.9
2017-Dec-13 07:45N 46°20' W 125°58'312.7
2017-Dec-13 07:30N 46°23' W 125°58'812.8
2017-Dec-13 06:54N 46°30' W 125°59'512.9
2017-Dec-13 06:31N 46°36' W 125°59'612.8
2017-Dec-13 06:01N 46°42' W 125°59'612.6
2017-Dec-13 05:30N 46°48' W 125°59'612.6
2017-Dec-13 05:01N 46°55' W 125°59'612.5
2017-Dec-13 04:30N 47°01' W 125°59'612.4
2017-Dec-13 04:01N 47°07' W 125°59'612.6
2017-Dec-13 03:30N 47°13' W 125°59'612.5
2017-Dec-13 03:00N 47°20' W 125°59'713.0
2017-Dec-13 02:30N 47°26' W 125°59'6313.4
2017-Dec-12 21:46N 48°21' W 125°11'413.0
2017-Dec-12 21:28N 48°24' W 125°08'613.2
2017-Dec-12 20:59N 48°29' W 125°02'612.4
2017-Dec-12 20:31N 48°31' W 124°53'713.2
2017-Dec-12 20:00N 48°31' W 124°43'612.3
2017-Dec-12 19:30N 48°28' W 124°35'613.0
2017-Dec-12 19:01N 48°26' W 124°26'713.4
2017-Dec-12 18:31N 48°23' W 124°17'713.1
2017-Dec-12 18:01N 48°21' W 124°07'612.9
2017-Dec-12 17:30N 48°18' W 123°58'713.4
2017-Dec-12 17:00N 48°17' W 123°49'713.6
2017-Dec-12 16:31N 48°16' W 123°39'612.3
2017-Dec-12 16:01N 48°17' W 123°29'612.6
2017-Dec-12 15:30N 48°22' W 123°24'510.0
2017-Dec-12 15:00N 48°23' W 123°17'611.3
2017-Dec-12 14:30N 48°28' W 123°12'714.9
2017-Dec-12 14:00N 48°35' W 123°14'714.3
2017-Dec-12 13:30N 48°42' W 123°15'714.7
2017-Dec-12 13:00N 48°45' W 123°05'611.4
2017-Dec-12 12:30N 48°51' W 123°02'714.8
2017-Dec-12 12:00N 48°55' W 123°10'714.6
2017-Dec-12 11:30N 49°00' W 123°18'713.2
2017-Dec-12 11:00N 49°06' W 123°23'714.4
2017-Dec-12 10:31N 49°13' W 123°21'612.8
2017-Dec-12 10:01N 49°19' W 123°16'611.1
2017-Dec-12 09:31N 49°19' W 123°08'4 8.4
2017-Dec-12 09:00N 49°18' W 123°01'1 1.0
2017-Dec-12 08:26N 49°18' W 123°00'0 0.0
2017-Dec-12 07:32N 49°18' W 123°00'0 0.0
2017-Dec-12 07:14N 49°18' W 123°00'0 0.0
2017-Dec-12 06:56N 49°18' W 123°00'0 0.0
2017-Dec-12 06:20N 49°18' W 123°00'0 0.0
2017-Dec-12 04:44N 49°18' W 123°00'0 0.0
2017-Dec-11 19:56N 49°18' W 123°00'0 0.0
2017-Dec-11 19:14N 49°18' W 123°00'0 0.0
2017-Dec-11 18:38N 49°18' W 123°00'0 0.0
2017-Dec-11 18:02N 49°18' W 123°00'0 0.0
2017-Dec-11 17:56N 49°18' W 123°00'0 0.0
2017-Dec-11 17:14N 49°18' W 123°00'0 0.0
2017-Dec-11 16:50N 49°18' W 123°00'0 0.0
2017-Dec-11 11:44N 49°18' W 123°00'0 0.0
2017-Dec-11 08:08N 49°18' W 123°00'0 0.0
2017-Dec-11 07:56N 49°18' W 123°00'0 0.0
2017-Dec-11 06:44N 49°18' W 123°00'0 0.0
2017-Dec-11 06:14N 49°18' W 123°00'0 0.0
2017-Dec-11 00:26N 49°18' W 123°00'0 0.0
2017-Dec-10 21:26N 49°18' W 123°00'0 0.0
2017-Dec-10 19:14N 49°18' W 123°00'0 0.0
2017-Dec-10 17:20N 49°18' W 123°00'0 0.0
2017-Dec-10 16:02N 49°18' W 123°00'0 0.0
2017-Dec-10 15:50N 49°18' W 123°00'0 0.0
2017-Dec-10 15:14N 49°18' W 123°00'0 0.0
2017-Dec-10 14:50N 49°18' W 123°00'0 0.0
2017-Dec-10 14:20N 49°18' W 123°00'0 0.0
2017-Dec-10 13:38N 49°18' W 123°00'0 0.0
2017-Dec-10 13:08N 49°18' W 123°00'0 0.0
2017-Dec-10 11:32N 49°18' W 123°00'0 0.0
2017-Dec-10 11:20N 49°18' W 123°00'0 0.0
2017-Dec-10 08:14N 49°18' W 123°00'0 0.0
2017-Dec-10 07:56N 49°18' W 123°00'0 0.0
2017-Dec-10 07:26N 49°18' W 123°00'0 0.0
2017-Dec-10 06:56N 49°18' W 123°00'0 0.0
2017-Dec-10 06:29N 49°18' W 123°00'0 0.5
2017-Dec-10 06:00N 49°18' W 123°00'2 4.2
2017-Dec-10 05:30N 49°18' W 122°57'0 0.2
2017-Dec-10 04:40N 49°18' W 122°57'0 0.0
2017-Dec-10 04:28N 49°18' W 122°57'0 0.0
2017-Dec-10 03:58N 49°18' W 122°57'0 0.1
2017-Dec-10 03:19N 49°18' W 122°57'0 0.1
2017-Dec-10 02:58N 49°18' W 122°57'0 0.0
2017-Dec-10 02:28N 49°18' W 122°57'0 0.7
2017-Dec-10 01:59N 49°18' W 122°57'3 5.4
2017-Dec-10 01:30N 49°18' W 123°01'3 5.8
2017-Dec-10 01:00N 49°18' W 123°06'3 6.4
2017-Dec-10 00:30N 49°19' W 123°10'1 2.1
2017-Dec-09 23:59N 49°18' W 123°12'0 0.1
2017-Dec-09 23:23N 49°18' W 123°12'0 0.1
2017-Dec-09 22:56N 49°18' W 123°12'0 0.1
2017-Dec-09 22:29N 49°18' W 123°12'0 0.0
2017-Dec-09 21:59N 49°18' W 123°12'0 0.0
2017-Dec-09 21:29N 49°18' W 123°12'0 0.1
2017-Dec-09 20:53N 49°18' W 123°12'0 0.1
2017-Dec-09 20:29N 49°18' W 123°12'0 0.0
2017-Dec-09 19:59N 49°18' W 123°12'0 0.0
2017-Dec-09 19:29N 49°18' W 123°12'0 0.0
2017-Dec-09 18:59N 49°18' W 123°12'0 0.1
2017-Dec-09 18:26N 49°18' W 123°12'0 0.1
2017-Dec-09 17:59N 49°18' W 123°12'0 0.1
2017-Dec-09 17:29N 49°18' W 123°11'0 0.1
2017-Dec-09 16:59N 49°18' W 123°11'0 0.1
2017-Dec-09 16:29N 49°18' W 123°11'0 0.0
2017-Dec-09 15:59N 49°18' W 123°11'0 0.1
2017-Dec-09 15:29N 49°18' W 123°11'0 0.1
2017-Dec-09 14:59N 49°18' W 123°11'0 0.1
2017-Dec-09 14:29N 49°18' W 123°11'0 0.0
2017-Dec-09 13:56N 49°18' W 123°11'0 0.0
2017-Dec-09 13:29N 49°18' W 123°11'0 0.1
2017-Dec-09 12:59N 49°18' W 123°11'0 0.0
2017-Dec-09 12:20N 49°18' W 123°11'0 0.1
2017-Dec-09 11:56N 49°18' W 123°11'0 0.0
2017-Dec-09 11:26N 49°18' W 123°11'0 0.0
2017-Dec-09 10:56N 49°18' W 123°11'0 0.1
2017-Dec-09 10:29N 49°18' W 123°12'0 0.1
2017-Dec-09 09:56N 49°18' W 123°12'0 0.0
2017-Dec-09 09:23N 49°18' W 123°12'0 0.0
2017-Dec-09 08:59N 49°18' W 123°12'0 0.0
2017-Dec-09 08:29N 49°18' W 123°12'0 0.1
2017-Dec-09 07:53N 49°18' W 123°12'0 0.1
2017-Dec-09 07:29N 49°18' W 123°11'0 0.0
2017-Dec-09 06:56N 49°18' W 123°11'0 0.0
2017-Dec-09 06:26N 49°18' W 123°11'0 0.0
2017-Dec-09 05:56N 49°18' W 123°11'0 0.0
2017-Dec-09 05:17N 49°18' W 123°11'0 0.0
2017-Dec-09 04:59N 49°18' W 123°11'0 0.1
2017-Dec-09 04:29N 49°18' W 123°11'0 0.1
2017-Dec-09 03:59N 49°18' W 123°11'0 0.1
2017-Dec-09 03:26N 49°18' W 123°11'0 0.1
2017-Dec-09 02:56N 49°18' W 123°11'0 0.1
2017-Dec-09 02:29N 49°18' W 123°11'0 0.0
2017-Dec-09 01:56N 49°18' W 123°11'0 0.0
2017-Dec-09 01:29N 49°18' W 123°11'0 0.1
2017-Dec-09 00:59N 49°18' W 123°11'0 0.0
2017-Dec-09 00:29N 49°18' W 123°11'0 0.0
2017-Dec-08 23:53N 49°18' W 123°11'0 0.0
2017-Dec-08 23:29N 49°18' W 123°11'0 0.0
2017-Dec-08 22:56N 49°18' W 123°11'0 0.2
2017-Dec-08 22:26N 49°18' W 123°11'0 0.2
2017-Dec-08 21:56N 49°18' W 123°12'0 0.1
2017-Dec-08 21:29N 49°18' W 123°12'0 0.0
2017-Dec-08 20:59N 49°18' W 123°12'0 0.0
2017-Dec-08 20:23N 49°18' W 123°12'0 0.0
2017-Dec-08 19:47N 49°18' W 123°12'0 0.0
2017-Dec-08 19:29N 49°18' W 123°12'0 0.1
2017-Dec-08 18:53N 49°18' W 123°12'0 0.0
2017-Dec-08 18:29N 49°18' W 123°12'0 0.1
2017-Dec-08 17:59N 49°18' W 123°12'0 0.0
2017-Dec-08 17:26N 49°18' W 123°12'0 0.1
2017-Dec-08 16:59N 49°18' W 123°11'0 0.0
2017-Dec-08 16:29N 49°18' W 123°11'0 0.0
2017-Dec-08 15:56N 49°18' W 123°11'0 0.0
2017-Dec-08 15:29N 49°18' W 123°11'0 0.0
2017-Dec-08 14:56N 49°18' W 123°11'0 0.0
2017-Dec-08 14:29N 49°18' W 123°11'0 0.0
2017-Dec-08 13:56N 49°18' W 123°11'0 0.0
2017-Dec-08 13:28N 49°18' W 123°11'0 0.0
2017-Dec-08 12:56N 49°18' W 123°11'0 0.0
2017-Dec-08 12:29N 49°18' W 123°11'0 0.0
2017-Dec-08 11:55N 49°18' W 123°11'0 0.1
2017-Dec-08 11:29N 49°18' W 123°11'0 0.1
2017-Dec-08 10:59N 49°18' W 123°11'0 0.0
2017-Dec-08 10:29N 49°18' W 123°11'0 0.1
2017-Dec-08 09:53N 49°18' W 123°11'0 0.1
2017-Dec-08 09:28N 49°18' W 123°11'0 0.1
2017-Dec-08 08:52N 49°18' W 123°12'0 0.1
2017-Dec-08 08:26N 49°18' W 123°12'0 0.1
2017-Dec-08 07:59N 49°18' W 123°12'0 0.0
2017-Dec-08 07:28N 49°18' W 123°12'0 0.2
2017-Dec-08 06:59N 49°18' W 123°12'0 0.2
2017-Dec-08 06:26N 49°18' W 123°12'0 0.1
2017-Dec-08 05:55N 49°18' W 123°12'0 0.0
2017-Dec-08 05:19N 49°18' W 123°12'0 0.1
2017-Dec-08 04:46N 49°18' W 123°11'0 0.0
2017-Dec-08 04:29N 49°18' W 123°11'0 0.0
2017-Dec-08 03:56N 49°18' W 123°11'0 0.0
2017-Dec-08 03:29N 49°18' W 123°11'0 0.0
2017-Dec-08 02:59N 49°18' W 123°11'0 0.0
2017-Dec-08 02:29N 49°18' W 123°11'0 0.0
2017-Dec-08 01:58N 49°18' W 123°11'0 0.0
2017-Dec-08 01:28N 49°18' W 123°11'0 0.0
2017-Dec-08 00:58N 49°18' W 123°11'0 0.0
2017-Dec-08 00:28N 49°18' W 123°11'0 0.0
2017-Dec-07 23:53N 49°18' W 123°11'0 0.0
2017-Dec-07 23:28N 49°18' W 123°11'0 0.0
2017-Dec-07 22:58N 49°18' W 123°11'0 0.0
2017-Dec-07 22:19N 49°18' W 123°11'0 0.0
2017-Dec-07 21:59N 49°18' W 123°11'0 0.0
2017-Dec-07 21:26N 49°18' W 123°11'0 0.0
2017-Dec-07 20:56N 49°18' W 123°11'0 0.1
2017-Dec-07 20:28N 49°18' W 123°12'0 0.0
2017-Dec-07 19:58N 49°18' W 123°12'0 0.0
2017-Dec-07 19:25N 49°18' W 123°12'0 0.2
2017-Dec-07 18:55N 49°18' W 123°12'0 0.0
2017-Dec-07 18:28N 49°18' W 123°12'0 0.1
2017-Dec-07 17:52N 49°18' W 123°12'0 0.1
2017-Dec-07 17:25N 49°18' W 123°12'0 0.1
2017-Dec-07 17:00N 49°18' W 123°12'2 3.1
2017-Dec-07 16:31N 49°18' W 123°14'4 8.5
2017-Dec-07 16:00N 49°15' W 123°19'611.9
2017-Dec-07 15:30N 49°09' W 123°20'611.1
2017-Dec-07 14:59N 49°03' W 123°19'612.9
2017-Dec-07 14:30N 48°59' W 123°13'713.0
2017-Dec-07 14:00N 48°54' W 123°06'612.1
2017-Dec-07 13:29N 48°49' W 123°00'713.8
2017-Dec-07 13:00N 48°44' W 123°07'713.2
2017-Dec-07 12:31N 48°40' W 123°15'714.6
2017-Dec-07 12:01N 48°33' W 123°12'714.5
2017-Dec-07 11:30N 48°26' W 123°10'815.6
2017-Dec-07 11:00N 48°22' W 123°20'4 7.2
2017-Dec-07 10:30N 48°20' W 123°25'3 5.9
2017-Dec-07 10:00N 48°17' W 123°26'4 7.3
2017-Dec-07 09:30N 48°14' W 123°30'4 7.6
2017-Dec-07 09:00N 48°13' W 123°35'4 7.6
2017-Dec-07 08:29N 48°13' W 123°41'4 8.3
2017-Dec-07 07:59N 48°13' W 123°47'4 7.8
2017-Dec-07 07:30N 48°13' W 123°53'5 8.9
2017-Dec-07 06:57N 48°15' W 124°00'4 8.8
2017-Dec-07 06:30N 48°17' W 124°05'5 8.7
2017-Dec-07 05:57N 48°19' W 124°12'4 8.3
2017-Dec-07 05:30N 48°20' W 124°17'4 8.3
2017-Dec-07 05:00N 48°22' W 124°23'4 8.4
2017-Dec-07 04:30N 48°24' W 124°28'4 8.4
2017-Dec-07 04:00N 48°25' W 124°34'4 8.5
2017-Dec-07 03:30N 48°27' W 124°40'4 8.7
2017-Dec-07 03:00N 48°29' W 124°46'5 9.2
2017-Dec-07 02:30N 48°29' W 124°53'4 7.7
2017-Dec-07 02:00N 48°28' W 124°59'3 7.0
2017-Dec-07 01:30N 48°26' W 125°03'4 7.8
2017-Dec-07 00:59N 48°22' W 125°05'4 8.5
2017-Dec-07 00:30N 48°19' W 125°08'4 8.2
2017-Dec-07 00:00N 48°15' W 125°11'4 8.3
2017-Dec-06 23:30N 48°11' W 125°14'4 8.6
2017-Dec-06 22:59N 48°07' W 125°17'6 9.0
2017-Dec-06 22:21N 48°02' W 125°20'11 8.8
2017-Dec-06 21:07N 47°54' W 125°31'1 8.9
2017-Dec-06 21:00N 47°53' W 125°31'  
Track history (hours):
 
Tides and Currents Weather Stations Pressure Air Temp Water Temp Dewpoint Dewpoint Depression Visibility Wind Speed Wind Dir Waves Ship Positions

Nord Steady

Last reported at 2017-Dec-16 16:31 UTC. Time now 2017-Dec-16 16:57 UTC.
Position N 37°46' W 122°21'.

Length 183 m; draft 9.1 m.

Type: Tanker. MMSI: 566739000.

Date/timePositionNaut miles runAvg speedWind from/ knotsBaromVisibWave heightAir tempDewpointWater temp
2017-Dec-16 16:31N 37°46' W 122°21'1 1.1
2017-Dec-16 16:01N 37°46' W 122°21'611.2
2017-Dec-16 15:31N 37°51' W 122°24'5 9.1
2017-Dec-16 15:00N 37°55' W 122°25'3 6.2
2017-Dec-16 14:30N 37°54' W 122°22'1 0.1
2017-Dec-15 23:53N 37°55' W 122°22'0 0.9
2017-Dec-15 23:30N 37°55' W 122°22'2 3.7
2017-Dec-15 23:00N 37°54' W 122°24'2 3.6
2017-Dec-15 22:31N 37°53' W 122°25'4 7.8
2017-Dec-15 22:00N 37°49' W 122°26'4 8.6
2017-Dec-15 21:30N 37°48' W 122°31'510.9
2017-Dec-15 21:01N 37°46' W 122°38'510.1
2017-Dec-15 20:31N 37°46' W 122°44'5 9.7
2017-Dec-15 20:00N 37°48' W 122°50'4 7.0
2017-Dec-15 19:30N 37°50' W 122°54'3 7.1
2017-Dec-15 19:00N 37°51' W 122°58'4 7.3
2017-Dec-15 18:30N 37°53' W 123°02'4 7.8
2017-Dec-15 18:00N 37°55' W 123°06'4 7.6
2017-Dec-15 17:30N 37°57' W 123°10'4 7.4
2017-Dec-15 16:59N 37°60' W 123°13'4 7.4
2017-Dec-15 16:30N 38°03' W 123°16'4 7.7
2017-Dec-15 16:00N 38°05' W 123°19'4 8.4
2017-Dec-15 15:30N 38°08' W 123°23'4 8.2
2017-Dec-15 15:00N 38°10' W 123°28'4 8.0
2017-Dec-15 14:30N 38°12' W 123°32'4 8.2
2017-Dec-15 14:00N 38°14' W 123°37'4 8.3
2017-Dec-15 13:30N 38°16' W 123°41'4 8.0
2017-Dec-15 13:00N 38°18' W 123°46'4 8.1
2017-Dec-15 12:30N 38°21' W 123°50'4 8.0
2017-Dec-15 12:00N 38°23' W 123°55'4 8.4
2017-Dec-15 11:30N 38°25' W 123°59'10 8.4
2017-Dec-15 10:19N 38°30' W 124°10'3 8.5
2017-Dec-15 10:00N 38°31' W 124°13'4 8.7
2017-Dec-15 09:30N 38°33' W 124°18'4 8.6
2017-Dec-15 09:00N 38°35' W 124°23'4 8.8
2017-Dec-15 08:30N 38°37' W 124°28'4 8.7
2017-Dec-15 08:00N 38°39' W 124°33'4 8.3
2017-Dec-15 07:30N 38°41' W 124°37'4 7.8
2017-Dec-15 06:57N 38°44' W 124°42'2 5.5
2017-Dec-15 06:30N 38°45' W 124°45'2 3.9
2017-Dec-15 06:00N 38°46' W 124°47'2 3.8
2017-Dec-15 05:30N 38°47' W 124°49'2 3.9
2017-Dec-15 05:00N 38°48' W 124°51'2 4.0
2017-Dec-15 04:30N 38°49' W 124°53'2 4.1
2017-Dec-15 04:00N 38°50' W 124°56'6 4.3
2017-Dec-15 02:30N 38°53' W 125°03'7 4.3
2017-Dec-15 00:56N 38°56' W 125°10'2 4.0
2017-Dec-15 00:30N 38°57' W 125°13'30 5.1
2017-Dec-14 18:30N 39°21' W 125°36'3 6.7
2017-Dec-14 18:00N 39°25' W 125°38'6 8.3
2017-Dec-14 17:20N 39°30' W 125°40'612.0
2017-Dec-14 16:48N 39°36' W 125°43'412.3
2017-Dec-14 16:30N 39°39' W 125°44'9711.4
2017-Dec-14 08:04N 41°15' W 125°58'112.0
2017-Dec-14 07:58N 41°16' W 125°58'14412.0
2017-Dec-13 19:56N 43°40' W 125°59'512.0
2017-Dec-13 19:30N 43°45' W 125°59'7513.3
2017-Dec-13 13:54N 45°00' W 125°59'713.0
2017-Dec-13 13:22N 45°07' W 125°59'513.1
2017-Dec-13 13:00N 45°12' W 125°59'1613.0
2017-Dec-13 11:45N 45°28' W 125°59'312.8
2017-Dec-13 11:30N 45°31' W 125°59'612.8
2017-Dec-13 11:00N 45°38' W 125°59'812.9
2017-Dec-13 10:23N 45°46' W 125°59'512.9
2017-Dec-13 10:00N 45°50' W 125°59'712.9
2017-Dec-13 09:30N 45°57' W 125°59'613.0
2017-Dec-13 09:00N 46°03' W 125°59'713.1
2017-Dec-13 08:30N 46°10' W 125°59'1012.9
2017-Dec-13 07:45N 46°20' W 125°58'312.7
2017-Dec-13 07:30N 46°23' W 125°58'812.8
2017-Dec-13 06:54N 46°30' W 125°59'512.9
2017-Dec-13 06:31N 46°36' W 125°59'612.8
2017-Dec-13 06:01N 46°42' W 125°59'612.6
2017-Dec-13 05:30N 46°48' W 125°59'612.6
2017-Dec-13 05:01N 46°55' W 125°59'612.5
2017-Dec-13 04:30N 47°01' W 125°59'612.4
2017-Dec-13 04:01N 47°07' W 125°59'612.6
2017-Dec-13 03:30N 47°13' W 125°59'612.5
2017-Dec-13 03:00N 47°20' W 125°59'713.0
2017-Dec-13 02:30N 47°26' W 125°59'6313.4
2017-Dec-12 21:46N 48°21' W 125°11'413.0
2017-Dec-12 21:28N 48°24' W 125°08'613.2
2017-Dec-12 20:59N 48°29' W 125°02'612.4
2017-Dec-12 20:31N 48°31' W 124°53'713.2
2017-Dec-12 20:00N 48°31' W 124°43'612.3
2017-Dec-12 19:30N 48°28' W 124°35'613.0
2017-Dec-12 19:01N 48°26' W 124°26'713.4
2017-Dec-12 18:31N 48°23' W 124°17'713.1
2017-Dec-12 18:01N 48°21' W 124°07'612.9
2017-Dec-12 17:30N 48°18' W 123°58'713.4
2017-Dec-12 17:00N 48°17' W 123°49'713.6
2017-Dec-12 16:31N 48°16' W 123°39'612.3
2017-Dec-12 16:01N 48°17' W 123°29'612.6
2017-Dec-12 15:30N 48°22' W 123°24'510.0
2017-Dec-12 15:00N 48°23' W 123°17'611.3
2017-Dec-12 14:30N 48°28' W 123°12'714.9
2017-Dec-12 14:00N 48°35' W 123°14'714.3
2017-Dec-12 13:30N 48°42' W 123°15'714.7
2017-Dec-12 13:00N 48°45' W 123°05'611.4
2017-Dec-12 12:30N 48°51' W 123°02'714.8
2017-Dec-12 12:00N 48°55' W 123°10'714.6
2017-Dec-12 11:30N 49°00' W 123°18'713.2
2017-Dec-12 11:00N 49°06' W 123°23'714.4
2017-Dec-12 10:31N 49°13' W 123°21'612.8
2017-Dec-12 10:01N 49°19' W 123°16'611.1
2017-Dec-12 09:31N 49°19' W 123°08'4 8.4
2017-Dec-12 09:00N 49°18' W 123°01'1 1.0
2017-Dec-12 08:26N 49°18' W 123°00'0 0.0
2017-Dec-12 07:32N 49°18' W 123°00'0 0.0
2017-Dec-12 07:14N 49°18' W 123°00'0 0.0
2017-Dec-12 06:56N 49°18' W 123°00'0 0.0
2017-Dec-12 06:20N 49°18' W 123°00'0 0.0
2017-Dec-12 04:44N 49°18' W 123°00'0 0.0
2017-Dec-11 19:56N 49°18' W 123°00'0 0.0
2017-Dec-11 19:14N 49°18' W 123°00'0 0.0
2017-Dec-11 18:38N 49°18' W 123°00'0 0.0
2017-Dec-11 18:02N 49°18' W 123°00'0 0.0
2017-Dec-11 17:56N 49°18' W 123°00'0 0.0
2017-Dec-11 17:14N 49°18' W 123°00'0 0.0
2017-Dec-11 16:50N 49°18' W 123°00'0 0.0
2017-Dec-11 11:44N 49°18' W 123°00'0 0.0
2017-Dec-11 08:08N 49°18' W 123°00'0 0.0
2017-Dec-11 07:56N 49°18' W 123°00'0 0.0
2017-Dec-11 06:44N 49°18' W 123°00'0 0.0
2017-Dec-11 06:14N 49°18' W 123°00'0 0.0
2017-Dec-11 00:26N 49°18' W 123°00'0 0.0
2017-Dec-10 21:26N 49°18' W 123°00'0 0.0
2017-Dec-10 19:14N 49°18' W 123°00'0 0.0
2017-Dec-10 17:20N 49°18' W 123°00'0 0.0
2017-Dec-10 16:02N 49°18' W 123°00'0 0.0
2017-Dec-10 15:50N 49°18' W 123°00'0 0.0
2017-Dec-10 15:14N 49°18' W 123°00'0 0.0
2017-Dec-10 14:50N 49°18' W 123°00'0 0.0
2017-Dec-10 14:20N 49°18' W 123°00'0 0.0
2017-Dec-10 13:38N 49°18' W 123°00'0 0.0
2017-Dec-10 13:08N 49°18' W 123°00'0 0.0
2017-Dec-10 11:32N 49°18' W 123°00'0 0.0
2017-Dec-10 11:20N 49°18' W 123°00'0 0.0
2017-Dec-10 08:14N 49°18' W 123°00'0 0.0
2017-Dec-10 07:56N 49°18' W 123°00'0 0.0
2017-Dec-10 07:26N 49°18' W 123°00'0 0.0
2017-Dec-10 06:56N 49°18' W 123°00'0 0.0
2017-Dec-10 06:29N 49°18' W 123°00'0 0.5
2017-Dec-10 06:00N 49°18' W 123°00'2 4.2
2017-Dec-10 05:30N 49°18' W 122°57'0 0.2
2017-Dec-10 04:40N 49°18' W 122°57'0 0.0
2017-Dec-10 04:28N 49°18' W 122°57'0 0.0
2017-Dec-10 03:58N 49°18' W 122°57'0 0.1
2017-Dec-10 03:19N 49°18' W 122°57'0 0.1
2017-Dec-10 02:58N 49°18' W 122°57'0 0.0
2017-Dec-10 02:28N 49°18' W 122°57'0 0.7
2017-Dec-10 01:59N 49°18' W 122°57'3 5.4
2017-Dec-10 01:30N 49°18' W 123°01'3 5.8
2017-Dec-10 01:00N 49°18' W 123°06'3 6.4
2017-Dec-10 00:30N 49°19' W 123°10'1 2.1
2017-Dec-09 23:59N 49°18' W 123°12'0 0.1
2017-Dec-09 23:23N 49°18' W 123°12'0 0.1
2017-Dec-09 22:56N 49°18' W 123°12'0 0.1
2017-Dec-09 22:29N 49°18' W 123°12'0 0.0
2017-Dec-09 21:59N 49°18' W 123°12'0 0.0
2017-Dec-09 21:29N 49°18' W 123°12'0 0.1
2017-Dec-09 20:53N 49°18' W 123°12'0 0.1
2017-Dec-09 20:29N 49°18' W 123°12'0 0.0
2017-Dec-09 19:59N 49°18' W 123°12'0 0.0
2017-Dec-09 19:29N 49°18' W 123°12'0 0.0
2017-Dec-09 18:59N 49°18' W 123°12'0 0.1
2017-Dec-09 18:26N 49°18' W 123°12'0 0.1
2017-Dec-09 17:59N 49°18' W 123°12'0 0.1
2017-Dec-09 17:29N 49°18' W 123°11'0 0.1
2017-Dec-09 16:59N 49°18' W 123°11'0 0.1
2017-Dec-09 16:29N 49°18' W 123°11'0 0.0
2017-Dec-09 15:59N 49°18' W 123°11'0 0.1
2017-Dec-09 15:29N 49°18' W 123°11'0 0.1
2017-Dec-09 14:59N 49°18' W 123°11'0 0.1
2017-Dec-09 14:29N 49°18' W 123°11'0 0.0
2017-Dec-09 13:56N 49°18' W 123°11'0 0.0
2017-Dec-09 13:29N 49°18' W 123°11'0 0.1
2017-Dec-09 12:59N 49°18' W 123°11'0 0.0
2017-Dec-09 12:20N 49°18' W 123°11'0 0.1
2017-Dec-09 11:56N 49°18' W 123°11'0 0.0
2017-Dec-09 11:26N 49°18' W 123°11'0 0.0
2017-Dec-09 10:56N 49°18' W 123°11'0 0.1
2017-Dec-09 10:29N 49°18' W 123°12'0 0.1
2017-Dec-09 09:56N 49°18' W 123°12'0 0.0
2017-Dec-09 09:23N 49°18' W 123°12'0 0.0
2017-Dec-09 08:59N 49°18' W 123°12'0 0.0
2017-Dec-09 08:29N 49°18' W 123°12'0 0.1
2017-Dec-09 07:53N 49°18' W 123°12'0 0.1
2017-Dec-09 07:29N 49°18' W 123°11'0 0.0
2017-Dec-09 06:56N 49°18' W 123°11'0 0.0
2017-Dec-09 06:26N 49°18' W 123°11'0 0.0
2017-Dec-09 05:56N 49°18' W 123°11'0 0.0
2017-Dec-09 05:17N 49°18' W 123°11'0 0.0
2017-Dec-09 04:59N 49°18' W 123°11'0 0.1
2017-Dec-09 04:29N 49°18' W 123°11'0 0.1
2017-Dec-09 03:59N 49°18' W 123°11'0 0.1
2017-Dec-09 03:26N 49°18' W 123°11'0 0.1
2017-Dec-09 02:56N 49°18' W 123°11'0 0.1
2017-Dec-09 02:29N 49°18' W 123°11'0 0.0
2017-Dec-09 01:56N 49°18' W 123°11'0 0.0
2017-Dec-09 01:29N 49°18' W 123°11'0 0.1
2017-Dec-09 00:59N 49°18' W 123°11'0 0.0
2017-Dec-09 00:29N 49°18' W 123°11'0 0.0
2017-Dec-08 23:53N 49°18' W 123°11'0 0.0
2017-Dec-08 23:29N 49°18' W 123°11'0 0.0
2017-Dec-08 22:56N 49°18' W 123°11'0 0.2
2017-Dec-08 22:26N 49°18' W 123°11'0 0.2
2017-Dec-08 21:56N 49°18' W 123°12'0 0.1
2017-Dec-08 21:29N 49°18' W 123°12'0 0.0
2017-Dec-08 20:59N 49°18' W 123°12'0 0.0
2017-Dec-08 20:23N 49°18' W 123°12'0 0.0
2017-Dec-08 19:47N 49°18' W 123°12'0 0.0
2017-Dec-08 19:29N 49°18' W 123°12'0 0.1
2017-Dec-08 18:53N 49°18' W 123°12'0 0.0
2017-Dec-08 18:29N 49°18' W 123°12'0 0.1
2017-Dec-08 17:59N 49°18' W 123°12'0 0.0
2017-Dec-08 17:26N 49°18' W 123°12'0 0.1
2017-Dec-08 16:59N 49°18' W 123°11'0 0.0
2017-Dec-08 16:29N 49°18' W 123°11'0 0.0
2017-Dec-08 15:56N 49°18' W 123°11'0 0.0
2017-Dec-08 15:29N 49°18' W 123°11'0 0.0
2017-Dec-08 14:56N 49°18' W 123°11'0 0.0
2017-Dec-08 14:29N 49°18' W 123°11'0 0.0
2017-Dec-08 13:56N 49°18' W 123°11'0 0.0
2017-Dec-08 13:28N 49°18' W 123°11'0 0.0
2017-Dec-08 12:56N 49°18' W 123°11'0 0.0
2017-Dec-08 12:29N 49°18' W 123°11'0 0.0
2017-Dec-08 11:55N 49°18' W 123°11'0 0.1
2017-Dec-08 11:29N 49°18' W 123°11'0 0.1
2017-Dec-08 10:59N 49°18' W 123°11'0 0.0
2017-Dec-08 10:29N 49°18' W 123°11'0 0.1
2017-Dec-08 09:53N 49°18' W 123°11'0 0.1
2017-Dec-08 09:28N 49°18' W 123°11'0 0.1
2017-Dec-08 08:52N 49°18' W 123°12'0 0.1
2017-Dec-08 08:26N 49°18' W 123°12'0 0.1
2017-Dec-08 07:59N 49°18' W 123°12'0 0.0
2017-Dec-08 07:28N 49°18' W 123°12'0 0.2
2017-Dec-08 06:59N 49°18' W 123°12'0 0.2
2017-Dec-08 06:26N 49°18' W 123°12'0 0.1
2017-Dec-08 05:55N 49°18' W 123°12'0 0.0
2017-Dec-08 05:19N 49°18' W 123°12'0 0.1
2017-Dec-08 04:46N 49°18' W 123°11'0 0.0
2017-Dec-08 04:29N 49°18' W 123°11'0 0.0
2017-Dec-08 03:56N 49°18' W 123°11'0 0.0
2017-Dec-08 03:29N 49°18' W 123°11'0 0.0
2017-Dec-08 02:59N 49°18' W 123°11'0 0.0
2017-Dec-08 02:29N 49°18' W 123°11'0 0.0
2017-Dec-08 01:58N 49°18' W 123°11'0 0.0
2017-Dec-08 01:28N 49°18' W 123°11'0 0.0
2017-Dec-08 00:58N 49°18' W 123°11'0 0.0
2017-Dec-08 00:28N 49°18' W 123°11'0 0.0
2017-Dec-07 23:53N 49°18' W 123°11'0 0.0
2017-Dec-07 23:28N 49°18' W 123°11'0 0.0
2017-Dec-07 22:58N 49°18' W 123°11'0 0.0
2017-Dec-07 22:19N 49°18' W 123°11'0 0.0
2017-Dec-07 21:59N 49°18' W 123°11'0 0.0
2017-Dec-07 21:26N 49°18' W 123°11'0 0.0
2017-Dec-07 20:56N 49°18' W 123°11'0 0.1
2017-Dec-07 20:28N 49°18' W 123°12'0 0.0
2017-Dec-07 19:58N 49°18' W 123°12'0 0.0
2017-Dec-07 19:25N 49°18' W 123°12'0 0.2
2017-Dec-07 18:55N 49°18' W 123°12'0 0.0
2017-Dec-07 18:28N 49°18' W 123°12'0 0.1
2017-Dec-07 17:52N 49°18' W 123°12'0 0.1
2017-Dec-07 17:25N 49°18' W 123°12'0 0.1
2017-Dec-07 17:00N 49°18' W 123°12'2 3.1
2017-Dec-07 16:31N 49°18' W 123°14'4 8.5
2017-Dec-07 16:00N 49°15' W 123°19'611.9
2017-Dec-07 15:30N 49°09' W 123°20'611.1
2017-Dec-07 14:59N 49°03' W 123°19'612.9
2017-Dec-07 14:30N 48°59' W 123°13'713.0
2017-Dec-07 14:00N 48°54' W 123°06'612.1
2017-Dec-07 13:29N 48°49' W 123°00'713.8
2017-Dec-07 13:00N 48°44' W 123°07'713.2
2017-Dec-07 12:31N 48°40' W 123°15'714.6
2017-Dec-07 12:01N 48°33' W 123°12'714.5
2017-Dec-07 11:30N 48°26' W 123°10'815.6
2017-Dec-07 11:00N 48°22' W 123°20'4 7.2
2017-Dec-07 10:30N 48°20' W 123°25'3 5.9
2017-Dec-07 10:00N 48°17' W 123°26'4 7.3
2017-Dec-07 09:30N 48°14' W 123°30'4 7.6
2017-Dec-07 09:00N 48°13' W 123°35'4 7.6
2017-Dec-07 08:29N 48°13' W 123°41'4 8.3
2017-Dec-07 07:59N 48°13' W 123°47'4 7.8
2017-Dec-07 07:30N 48°13' W 123°53'5 8.9
2017-Dec-07 06:57N 48°15' W 124°00'4 8.8
2017-Dec-07 06:30N 48°17' W 124°05'5 8.7
2017-Dec-07 05:57N 48°19' W 124°12'4 8.3
2017-Dec-07 05:30N 48°20' W 124°17'4 8.3
2017-Dec-07 05:00N 48°22' W 124°23'4 8.4
2017-Dec-07 04:30N 48°24' W 124°28'4 8.4
2017-Dec-07 04:00N 48°25' W 124°34'4 8.5
2017-Dec-07 03:30N 48°27' W 124°40'4 8.7
2017-Dec-07 03:00N 48°29' W 124°46'5 9.2
2017-Dec-07 02:30N 48°29' W 124°53'4 7.7
2017-Dec-07 02:00N 48°28' W 124°59'3 7.0
2017-Dec-07 01:30N 48°26' W 125°03'4 7.8
2017-Dec-07 00:59N 48°22' W 125°05'4 8.5
2017-Dec-07 00:30N 48°19' W 125°08'4 8.2
2017-Dec-07 00:00N 48°15' W 125°11'4 8.3
2017-Dec-06 23:30N 48°11' W 125°14'4 8.6
2017-Dec-06 22:59N 48°07' W 125°17'6 9.0
2017-Dec-06 22:21N 48°02' W 125°20'11 8.8
2017-Dec-06 21:07N 47°54' W 125°31'1 8.9
2017-Dec-06 21:00N 47°53' W 125°31'  

Dump ship's entire track history